Cucuta, Venezuela
Current Conditions -  °F | °C
As of 6:00 PM on Monday 24 Nov 2014 (Local Time) from SKCC Reporting Station
Scattered Clouds Scattered Clouds  
Wind Chill: 84°   Ceiling: Unl
Heat Index: 88°   Visibility: 6mi
Dew Point: 70°   Wind: 0mph
Humidity: 62%   Direction: NA
Pressure: 29.83"   Gusts: NA
Location:  7.9°N, 72.49°W
Report Text: SKCC 242200Z 00000KT 9999 SCT018 SC090 29/21 A2983
Loading
Personal Weather Stations






























Interactive Weather Map New forecast layout! Learn more

10-Day Weather Forecast

Advertisements
Track Severe Weather on mobile